sensor_id;sensor_type;location;lat;lon;timestamp;P1;durP1;ratioP1;P2;durP2;ratioP2
10096;SDS011;5087;42.662;23.466;2022-11-11T00:01:57;0.20;;;0.20;;
10096;SDS011;5087;42.662;23.466;2022-11-11T00:04:43;0.10;;;0.10;;
10096;SDS011;5087;42.662;23.466;2022-11-11T00:07:31;0.30;;;0.30;;
10096;SDS011;5087;42.662;23.466;2022-11-11T00:10:17;0.40;;;0.40;;
10096;SDS011;5087;42.662;23.466;2022-11-11T00:13:03;0.70;;;0.70;;
10096;SDS011;5087;42.662;23.466;2022-11-11T00:15:49;0.20;;;0.20;;
10096;SDS011;5087;42.662;23.466;2022-11-11T00:18:36;0.30;;;0.30;;
10096;SDS011;5087;42.662;23.466;2022-11-11T00:21:40;0.30;;;0.30;;
10096;SDS011;5087;42.662;23.466;2022-11-11T00:24:44;0.73;;;0.73;;
10096;SDS011;5087;42.662;23.466;2022-11-11T00:27:48;0.37;;;0.37;;
10096;SDS011;5087;42.662;23.466;2022-11-11T00:30:34;0.30;;;0.30;;
10096;SDS011;5087;42.662;23.466;2022-11-11T00:33:20;0.30;;;0.30;;
10096;SDS011;5087;42.662;23.466;2022-11-11T00:36:06;0.20;;;0.20;;
10096;SDS011;5087;42.662;23.466;2022-11-11T00:38:51;2.80;;;0.93;;
10096;SDS011;5087;42.662;23.466;2022-11-11T00:41:39;0.30;;;0.30;;
10096;SDS011;5087;42.662;23.466;2022-11-11T00:44:25;0.30;;;0.30;;
10096;SDS011;5087;42.662;23.466;2022-11-11T00:47:11;0.40;;;0.40;;
10096;SDS011;5087;42.662;23.466;2022-11-11T00:50:15;0.30;;;0.30;;
10096;SDS011;5087;42.662;23.466;2022-11-11T00:53:34;0.30;;;0.30;;
10096;SDS011;5087;42.662;23.466;2022-11-11T00:56:21;0.40;;;0.40;;
10096;SDS011;5087;42.662;23.466;2022-11-11T00:59:09;0.40;;;0.40;;
10096;SDS011;5087;42.662;23.466;2022-11-11T01:01:54;0.70;;;0.70;;
10096;SDS011;5087;42.662;23.466;2022-11-11T01:04:40;0.53;;;0.53;;
10096;SDS011;5087;42.662;23.466;2022-11-11T01:07:26;0.30;;;0.30;;
10096;SDS011;5087;42.662;23.466;2022-11-11T01:10:12;0.87;;;0.87;;
10096;SDS011;5087;42.662;23.466;2022-11-11T01:13:19;1.07;;;1.07;;
10096;SDS011;5087;42.662;23.466;2022-11-11T01:16:10;0.70;;;0.70;;
10096;SDS011;5087;42.662;23.466;2022-11-11T01:18:58;1.00;;;1.00;;
10096;SDS011;5087;42.662;23.466;2022-11-11T01:21:44;0.80;;;0.80;;
10096;SDS011;5087;42.662;23.466;2022-11-11T01:24:31;1.43;;;1.43;;
10096;SDS011;5087;42.662;23.466;2022-11-11T01:27:16;0.50;;;0.50;;
10096;SDS011;5087;42.662;23.466;2022-11-11T01:41:59;0.80;;;0.80;;
10096;SDS011;5087;42.662;23.466;2022-11-11T01:44:45;0.70;;;0.70;;
10096;SDS011;5087;42.662;23.466;2022-11-11T01:47:32;0.50;;;0.50;;
10096;SDS011;5087;42.662;23.466;2022-11-11T01:50:32;1.60;;;1.60;;
10096;SDS011;5087;42.662;23.466;2022-11-11T01:53:18;0.70;;;0.70;;
10096;SDS011;5087;42.662;23.466;2022-11-11T01:56:04;1.17;;;1.17;;
10096;SDS011;5087;42.662;23.466;2022-11-11T01:58:55;0.80;;;0.80;;
10096;SDS011;5087;42.662;23.466;2022-11-11T02:01:44;2.77;;;2.57;;
10096;SDS011;5087;42.662;23.466;2022-11-11T02:04:32;0.30;;;0.30;;
10096;SDS011;5087;42.662;23.466;2022-11-11T02:07:35;0.60;;;0.60;;
10096;SDS011;5087;42.662;23.466;2022-11-11T02:10:22;1.03;;;1.03;;
10096;SDS011;5087;42.662;23.466;2022-11-11T02:13:11;0.33;;;0.33;;
10096;SDS011;5087;42.662;23.466;2022-11-11T02:16:16;0.87;;;0.87;;
10096;SDS011;5087;42.662;23.466;2022-11-11T02:19:03;1.00;;;1.00;;
10096;SDS011;5087;42.662;23.466;2022-11-11T02:21:51;0.30;;;0.30;;
10096;SDS011;5087;42.662;23.466;2022-11-11T02:24:44;0.30;;;0.30;;
10096;SDS011;5087;42.662;23.466;2022-11-11T02:27:30;0.40;;;0.40;;
10096;SDS011;5087;42.662;23.466;2022-11-11T02:30:18;0.30;;;0.30;;
10096;SDS011;5087;42.662;23.466;2022-11-11T02:33:08;0.40;;;0.40;;
10096;SDS011;5087;42.662;23.466;2022-11-11T02:35:55;1.33;;;1.30;;
10096;SDS011;5087;42.662;23.466;2022-11-11T02:38:43;0.30;;;0.30;;
10096;SDS011;5087;42.662;23.466;2022-11-11T02:41:30;0.40;;;0.40;;
10096;SDS011;5087;42.662;23.466;2022-11-11T02:44:33;0.30;;;0.30;;
10096;SDS011;5087;42.662;23.466;2022-11-11T02:47:19;2.10;;;1.90;;
10096;SDS011;5087;42.662;23.466;2022-11-11T02:50:06;0.30;;;0.30;;
10096;SDS011;5087;42.662;23.466;2022-11-11T02:52:53;0.33;;;0.33;;
10096;SDS011;5087;42.662;23.466;2022-11-11T02:55:38;0.43;;;0.43;;
10096;SDS011;5087;42.662;23.466;2022-11-11T02:58:25;0.30;;;0.30;;
10096;SDS011;5087;42.662;23.466;2022-11-11T03:01:11;0.40;;;0.40;;
10096;SDS011;5087;42.662;23.466;2022-11-11T03:04:02;0.50;;;0.50;;
10096;SDS011;5087;42.662;23.466;2022-11-11T03:06:49;0.57;;;0.57;;
10096;SDS011;5087;42.662;23.466;2022-11-11T03:09:35;0.70;;;0.70;;
10096;SDS011;5087;42.662;23.466;2022-11-11T03:12:21;0.33;;;0.33;;
10096;SDS011;5087;42.662;23.466;2022-11-11T03:15:09;0.80;;;0.80;;
10096;SDS011;5087;42.662;23.466;2022-11-11T03:17:55;0.30;;;0.30;;
10096;SDS011;5087;42.662;23.466;2022-11-11T03:20:39;0.30;;;0.30;;
10096;SDS011;5087;42.662;23.466;2022-11-11T03:23:43;0.30;;;0.30;;
10096;SDS011;5087;42.662;23.466;2022-11-11T03:26:29;0.20;;;0.20;;
10096;SDS011;5087;42.662;23.466;2022-11-11T03:29:14;0.30;;;0.30;;
10096;SDS011;5087;42.662;23.466;2022-11-11T03:32:02;0.50;;;0.50;;
10096;SDS011;5087;42.662;23.466;2022-11-11T03:34:47;0.67;;;0.67;;
10096;SDS011;5087;42.662;23.466;2022-11-11T03:37:33;1.47;;;1.37;;
10096;SDS011;5087;42.662;23.466;2022-11-11T03:40:38;0.30;;;0.30;;
10096;SDS011;5087;42.662;23.466;2022-11-11T03:43:24;0.23;;;0.23;;
10096;SDS011;5087;42.662;23.466;2022-11-11T03:46:12;0.20;;;0.20;;
10096;SDS011;5087;42.662;23.466;2022-11-11T03:48:59;0.30;;;0.30;;
10096;SDS011;5087;42.662;23.466;2022-11-11T03:51:46;0.20;;;0.20;;
10096;SDS011;5087;42.662;23.466;2022-11-11T03:54:32;0.20;;;0.20;;
10096;SDS011;5087;42.662;23.466;2022-11-11T03:57:18;0.30;;;0.30;;
10096;SDS011;5087;42.662;23.466;2022-11-11T04:00:17;0.30;;;0.30;;
10096;SDS011;5087;42.662;23.466;2022-11-11T04:03:05;0.30;;;0.30;;
10096;SDS011;5087;42.662;23.466;2022-11-11T04:06:14;0.30;;;0.30;;
10096;SDS011;5087;42.662;23.466;2022-11-11T04:09:18;0.30;;;0.30;;
10096;SDS011;5087;42.662;23.466;2022-11-11T04:12:21;0.30;;;0.30;;
10096;SDS011;5087;42.662;23.466;2022-11-11T04:15:08;0.30;;;0.30;;
10096;SDS011;5087;42.662;23.466;2022-11-11T04:18:11;0.50;;;0.50;;
10096;SDS011;5087;42.662;23.466;2022-11-11T04:20:57;0.30;;;0.30;;
10096;SDS011;5087;42.662;23.466;2022-11-11T04:24:02;0.30;;;0.30;;
10096;SDS011;5087;42.662;23.466;2022-11-11T04:27:11;0.30;;;0.30;;
10096;SDS011;5087;42.662;23.466;2022-11-11T04:29:56;0.30;;;0.30;;
10096;SDS011;5087;42.662;23.466;2022-11-11T04:32:43;0.30;;;0.30;;
10096;SDS011;5087;42.662;23.466;2022-11-11T04:35:30;0.20;;;0.20;;
10096;SDS011;5087;42.662;23.466;2022-11-11T04:38:16;0.30;;;0.30;;
10096;SDS011;5087;42.662;23.466;2022-11-11T04:41:21;0.30;;;0.30;;
10096;SDS011;5087;42.662;23.466;2022-11-11T04:44:07;0.40;;;0.40;;
10096;SDS011;5087;42.662;23.466;2022-11-11T04:47:14;0.30;;;0.30;;
10096;SDS011;5087;42.662;23.466;2022-11-11T04:50:01;0.50;;;0.50;;
10096;SDS011;5087;42.662;23.466;2022-11-11T04:52:46;0.30;;;0.30;;
10096;SDS011;5087;42.662;23.466;2022-11-11T04:55:33;1.90;;;0.83;;
10096;SDS011;5087;42.662;23.466;2022-11-11T04:58:37;0.70;;;0.70;;
10096;SDS011;5087;42.662;23.466;2022-11-11T05:01:24;0.30;;;0.30;;
10096;SDS011;5087;42.662;23.466;2022-11-11T05:04:27;0.20;;;0.20;;
10096;SDS011;5087;42.662;23.466;2022-11-11T05:07:13;0.20;;;0.20;;
10096;SDS011;5087;42.662;23.466;2022-11-11T05:10:15;0.40;;;0.40;;
10096;SDS011;5087;42.662;23.466;2022-11-11T05:13:02;0.50;;;0.50;;
10096;SDS011;5087;42.662;23.466;2022-11-11T05:16:08;0.50;;;0.50;;
10096;SDS011;5087;42.662;23.466;2022-11-11T05:19:16;0.20;;;0.20;;
10096;SDS011;5087;42.662;23.466;2022-11-11T05:22:21;0.73;;;0.73;;
10096;SDS011;5087;42.662;23.466;2022-11-11T05:25:08;0.30;;;0.30;;
10096;SDS011;5087;42.662;23.466;2022-11-11T05:28:08;0.20;;;0.20;;
10096;SDS011;5087;42.662;23.466;2022-11-11T05:30:54;0.20;;;0.20;;
10096;SDS011;5087;42.662;23.466;2022-11-11T05:33:41;0.50;;;0.30;;
10096;SDS011;5087;42.662;23.466;2022-11-11T05:36:27;0.20;;;0.20;;
10096;SDS011;5087;42.662;23.466;2022-11-11T05:39:13;0.20;;;0.20;;
10096;SDS011;5087;42.662;23.466;2022-11-11T05:42:03;0.30;;;0.30;;
10096;SDS011;5087;42.662;23.466;2022-11-11T05:44:54;0.20;;;0.20;;
10096;SDS011;5087;42.662;23.466;2022-11-11T05:47:41;0.20;;;0.20;;
10096;SDS011;5087;42.662;23.466;2022-11-11T05:50:30;0.20;;;0.20;;
10096;SDS011;5087;42.662;23.466;2022-11-11T05:53:17;0.20;;;0.20;;
10096;SDS011;5087;42.662;23.466;2022-11-11T05:56:09;0.20;;;0.20;;
10096;SDS011;5087;42.662;23.466;2022-11-11T05:58:57;0.20;;;0.20;;
10096;SDS011;5087;42.662;23.466;2022-11-11T06:01:45;0.10;;;0.10;;
10096;SDS011;5087;42.662;23.466;2022-11-11T06:04:31;0.10;;;0.10;;
10096;SDS011;5087;42.662;23.466;2022-11-11T06:07:22;0.10;;;0.10;;
10096;SDS011;5087;42.662;23.466;2022-11-11T06:10:08;0.10;;;0.10;;
10096;SDS011;5087;42.662;23.466;2022-11-11T06:13:12;0.30;;;0.30;;
10096;SDS011;5087;42.662;23.466;2022-11-11T06:15:59;0.20;;;0.20;;
10096;SDS011;5087;42.662;23.466;2022-11-11T06:18:45;0.10;;;0.10;;
10096;SDS011;5087;42.662;23.466;2022-11-11T06:21:31;0.10;;;0.10;;
10096;SDS011;5087;42.662;23.466;2022-11-11T06:24:38;0.10;;;0.10;;
10096;SDS011;5087;42.662;23.466;2022-11-11T06:27:24;0.20;;;0.20;;
10096;SDS011;5087;42.662;23.466;2022-11-11T06:30:11;0.20;;;0.20;;
10096;SDS011;5087;42.662;23.466;2022-11-11T06:32:57;0.83;;;0.83;;
10096;SDS011;5087;42.662;23.466;2022-11-11T06:35:43;2.83;;;2.13;;
10096;SDS011;5087;42.662;23.466;2022-11-11T06:38:29;0.43;;;0.43;;
10096;SDS011;5087;42.662;23.466;2022-11-11T06:41:17;0.67;;;0.67;;
10096;SDS011;5087;42.662;23.466;2022-11-11T06:44:04;0.30;;;0.30;;
10096;SDS011;5087;42.662;23.466;2022-11-11T06:46:50;0.40;;;0.40;;
10096;SDS011;5087;42.662;23.466;2022-11-11T06:49:36;0.30;;;0.30;;
10096;SDS011;5087;42.662;23.466;2022-11-11T06:52:22;0.40;;;0.40;;
10096;SDS011;5087;42.662;23.466;2022-11-11T06:55:08;0.40;;;0.40;;
10096;SDS011;5087;42.662;23.466;2022-11-11T06:58:00;1.27;;;1.27;;
10096;SDS011;5087;42.662;23.466;2022-11-11T07:00:49;0.30;;;0.30;;
10096;SDS011;5087;42.662;23.466;2022-11-11T07:03:35;0.50;;;0.50;;
10096;SDS011;5087;42.662;23.466;2022-11-11T07:06:21;1.37;;;1.33;;
10096;SDS011;5087;42.662;23.466;2022-11-11T07:09:07;0.67;;;0.67;;
10096;SDS011;5087;42.662;23.466;2022-11-11T07:11:55;0.97;;;0.97;;
10096;SDS011;5087;42.662;23.466;2022-11-11T07:14:42;0.60;;;0.60;;
10096;SDS011;5087;42.662;23.466;2022-11-11T07:17:29;0.40;;;0.40;;
10096;SDS011;5087;42.662;23.466;2022-11-11T07:20:16;0.20;;;0.20;;
10096;SDS011;5087;42.662;23.466;2022-11-11T07:23:02;0.10;;;0.10;;
10096;SDS011;5087;42.662;23.466;2022-11-11T07:25:48;0.20;;;0.20;;
10096;SDS011;5087;42.662;23.466;2022-11-11T07:28:34;0.43;;;0.43;;
10096;SDS011;5087;42.662;23.466;2022-11-11T07:31:21;0.93;;;0.83;;
10096;SDS011;5087;42.662;23.466;2022-11-11T07:34:08;0.10;;;0.10;;
10096;SDS011;5087;42.662;23.466;2022-11-11T07:36:54;0.20;;;0.20;;
10096;SDS011;5087;42.662;23.466;2022-11-11T07:39:40;0.10;;;0.10;;
10096;SDS011;5087;42.662;23.466;2022-11-11T07:42:26;0.97;;;0.97;;
10096;SDS011;5087;42.662;23.466;2022-11-11T07:45:14;0.63;;;0.63;;
10096;SDS011;5087;42.662;23.466;2022-11-11T07:48:01;0.23;;;0.23;;
10096;SDS011;5087;42.662;23.466;2022-11-11T07:50:52;0.20;;;0.20;;
10096;SDS011;5087;42.662;23.466;2022-11-11T07:53:39;0.20;;;0.20;;
10096;SDS011;5087;42.662;23.466;2022-11-11T07:56:26;1.70;;;0.60;;
10096;SDS011;5087;42.662;23.466;2022-11-11T07:59:12;0.20;;;0.20;;
10096;SDS011;5087;42.662;23.466;2022-11-11T08:02:00;0.40;;;0.40;;
10096;SDS011;5087;42.662;23.466;2022-11-11T08:04:49;0.50;;;0.50;;
10096;SDS011;5087;42.662;23.466;2022-11-11T08:07:42;0.40;;;0.40;;
10096;SDS011;5087;42.662;23.466;2022-11-11T08:10:28;1.27;;;1.27;;
10096;SDS011;5087;42.662;23.466;2022-11-11T08:13:14;0.80;;;0.80;;
10096;SDS011;5087;42.662;23.466;2022-11-11T08:16:25;1.10;;;1.10;;
10096;SDS011;5087;42.662;23.466;2022-11-11T08:19:11;0.60;;;0.60;;
10096;SDS011;5087;42.662;23.466;2022-11-11T08:21:58;1.53;;;1.53;;
10096;SDS011;5087;42.662;23.466;2022-11-11T08:24:44;0.60;;;0.60;;
10096;SDS011;5087;42.662;23.466;2022-11-11T08:27:31;0.60;;;0.60;;
10096;SDS011;5087;42.662;23.466;2022-11-11T08:30:17;0.90;;;0.90;;
10096;SDS011;5087;42.662;23.466;2022-11-11T08:33:03;1.00;;;1.00;;
10096;SDS011;5087;42.662;23.466;2022-11-11T08:35:51;1.60;;;1.00;;
10096;SDS011;5087;42.662;23.466;2022-11-11T08:38:39;1.43;;;1.43;;
10096;SDS011;5087;42.662;23.466;2022-11-11T08:41:25;0.80;;;0.80;;
10096;SDS011;5087;42.662;23.466;2022-11-11T08:44:11;0.73;;;0.73;;
10096;SDS011;5087;42.662;23.466;2022-11-11T08:46:58;1.00;;;1.00;;
10096;SDS011;5087;42.662;23.466;2022-11-11T08:49:43;1.50;;;1.50;;
10096;SDS011;5087;42.662;23.466;2022-11-11T08:52:32;1.30;;;1.30;;
10096;SDS011;5087;42.662;23.466;2022-11-11T08:55:19;1.40;;;1.40;;
10096;SDS011;5087;42.662;23.466;2022-11-11T08:58:05;1.53;;;1.53;;
10096;SDS011;5087;42.662;23.466;2022-11-11T09:00:51;1.87;;;1.87;;
10096;SDS011;5087;42.662;23.466;2022-11-11T09:03:41;1.70;;;1.70;;
10096;SDS011;5087;42.662;23.466;2022-11-11T09:06:28;1.80;;;1.80;;
10096;SDS011;5087;42.662;23.466;2022-11-11T09:09:14;2.47;;;2.47;;
10096;SDS011;5087;42.662;23.466;2022-11-11T09:12:02;2.67;;;2.67;;
10096;SDS011;5087;42.662;23.466;2022-11-11T09:14:48;3.20;;;3.20;;
10096;SDS011;5087;42.662;23.466;2022-11-11T09:17:34;3.40;;;3.40;;
10096;SDS011;5087;42.662;23.466;2022-11-11T09:20:20;3.10;;;3.10;;
10096;SDS011;5087;42.662;23.466;2022-11-11T09:23:09;3.07;;;3.07;;
10096;SDS011;5087;42.662;23.466;2022-11-11T09:25:55;3.60;;;3.60;;
10096;SDS011;5087;42.662;23.466;2022-11-11T09:28:42;3.40;;;3.40;;
10096;SDS011;5087;42.662;23.466;2022-11-11T09:31:30;3.60;;;3.60;;
10096;SDS011;5087;42.662;23.466;2022-11-11T09:34:16;3.30;;;3.30;;
10096;SDS011;5087;42.662;23.466;2022-11-11T09:37:02;3.40;;;3.40;;
10096;SDS011;5087;42.662;23.466;2022-11-11T09:39:47;3.70;;;3.60;;
10096;SDS011;5087;42.662;23.466;2022-11-11T09:42:36;3.20;;;3.20;;
10096;SDS011;5087;42.662;23.466;2022-11-11T09:45:25;3.20;;;3.20;;
10096;SDS011;5087;42.662;23.466;2022-11-11T09:48:24;3.10;;;3.10;;
10096;SDS011;5087;42.662;23.466;2022-11-11T09:51:23;3.40;;;3.40;;
10096;SDS011;5087;42.662;23.466;2022-11-11T09:54:14;3.20;;;3.20;;
10096;SDS011;5087;42.662;23.466;2022-11-11T09:57:04;3.30;;;3.30;;
10096;SDS011;5087;42.662;23.466;2022-11-11T09:59:59;3.50;;;3.50;;
10096;SDS011;5087;42.662;23.466;2022-11-11T10:02:51;3.10;;;3.10;;
10096;SDS011;5087;42.662;23.466;2022-11-11T10:05:40;3.30;;;3.30;;
10096;SDS011;5087;42.662;23.466;2022-11-11T10:08:32;4.07;;;3.97;;
10096;SDS011;5087;42.662;23.466;2022-11-11T10:11:21;3.90;;;3.80;;
10096;SDS011;5087;42.662;23.466;2022-11-11T10:14:14;3.47;;;3.47;;
10096;SDS011;5087;42.662;23.466;2022-11-11T10:17:02;4.00;;;3.90;;
10096;SDS011;5087;42.662;23.466;2022-11-11T10:19:58;3.57;;;3.57;;
10096;SDS011;5087;42.662;23.466;2022-11-11T10:22:58;3.50;;;3.50;;
10096;SDS011;5087;42.662;23.466;2022-11-11T10:25:52;3.40;;;3.40;;
10096;SDS011;5087;42.662;23.466;2022-11-11T10:28:38;4.03;;;3.93;;
10096;SDS011;5087;42.662;23.466;2022-11-11T10:31:27;4.07;;;3.97;;
10096;SDS011;5087;42.662;23.466;2022-11-11T10:34:14;3.80;;;3.80;;
10096;SDS011;5087;42.662;23.466;2022-11-11T10:37:10;3.60;;;3.60;;
10096;SDS011;5087;42.662;23.466;2022-11-11T10:40:04;4.10;;;4.00;;
10096;SDS011;5087;42.662;23.466;2022-11-11T10:43:00;3.80;;;3.80;;
10096;SDS011;5087;42.662;23.466;2022-11-11T10:45:48;3.60;;;3.60;;
10096;SDS011;5087;42.662;23.466;2022-11-11T10:48:42;3.70;;;3.70;;
10096;SDS011;5087;42.662;23.466;2022-11-11T10:51:36;3.60;;;3.60;;
10096;SDS011;5087;42.662;23.466;2022-11-11T10:54:31;3.70;;;3.70;;
10096;SDS011;5087;42.662;23.466;2022-11-11T10:57:23;4.10;;;4.00;;
10096;SDS011;5087;42.662;23.466;2022-11-11T11:00:17;4.13;;;4.03;;
10096;SDS011;5087;42.662;23.466;2022-11-11T11:03:04;4.10;;;4.00;;
10096;SDS011;5087;42.662;23.466;2022-11-11T11:05:58;4.10;;;4.00;;
10096;SDS011;5087;42.662;23.466;2022-11-11T11:08:51;3.80;;;3.80;;
10096;SDS011;5087;42.662;23.466;2022-11-11T11:11:44;3.70;;;3.70;;
10096;SDS011;5087;42.662;23.466;2022-11-11T11:14:35;4.50;;;4.40;;
10096;SDS011;5087;42.662;23.466;2022-11-11T11:17:26;4.10;;;4.00;;
10096;SDS011;5087;42.662;23.466;2022-11-11T11:20:20;4.40;;;4.30;;
10096;SDS011;5087;42.662;23.466;2022-11-11T11:23:07;4.33;;;4.23;;
10096;SDS011;5087;42.662;23.466;2022-11-11T11:25:53;4.20;;;4.10;;
10096;SDS011;5087;42.662;23.466;2022-11-11T11:31:46;4.60;;;4.50;;
10096;SDS011;5087;42.662;23.466;2022-11-11T11:34:41;4.87;;;4.77;;
10096;SDS011;5087;42.662;23.466;2022-11-11T11:37:29;4.60;;;4.50;;
10096;SDS011;5087;42.662;23.466;2022-11-11T11:40:15;4.60;;;4.50;;
10096;SDS011;5087;42.662;23.466;2022-11-11T11:43:02;4.90;;;4.80;;
10096;SDS011;5087;42.662;23.466;2022-11-11T11:46:24;4.80;;;4.70;;
10096;SDS011;5087;42.662;23.466;2022-11-11T11:49:17;4.73;;;4.63;;
10096;SDS011;5087;42.662;23.466;2022-11-11T11:52:11;4.90;;;4.80;;
10096;SDS011;5087;42.662;23.466;2022-11-11T11:55:05;5.00;;;4.90;;
10096;SDS011;5087;42.662;23.466;2022-11-11T11:58:01;4.90;;;4.80;;
10096;SDS011;5087;42.662;23.466;2022-11-11T12:01:02;4.90;;;4.80;;
10096;SDS011;5087;42.662;23.466;2022-11-11T12:04:08;4.60;;;4.50;;
10096;SDS011;5087;42.662;23.466;2022-11-11T12:07:07;4.97;;;4.87;;
10096;SDS011;5087;42.662;23.466;2022-11-11T12:10:00;5.10;;;5.00;;
10096;SDS011;5087;42.662;23.466;2022-11-11T12:12:54;5.30;;;5.20;;
10096;SDS011;5087;42.662;23.466;2022-11-11T12:15:50;5.40;;;5.30;;
10096;SDS011;5087;42.662;23.466;2022-11-11T12:18:50;5.47;;;5.37;;
10096;SDS011;5087;42.662;23.466;2022-11-11T12:21:53;5.40;;;5.30;;
10096;SDS011;5087;42.662;23.466;2022-11-11T12:24:46;5.30;;;5.20;;
10096;SDS011;5087;42.662;23.466;2022-11-11T12:27:41;5.27;;;5.17;;
10096;SDS011;5087;42.662;23.466;2022-11-11T12:30:36;5.40;;;5.30;;
10096;SDS011;5087;42.662;23.466;2022-11-11T12:33:37;5.73;;;5.60;;
10096;SDS011;5087;42.662;23.466;2022-11-11T12:36:34;5.80;;;5.70;;
10096;SDS011;5087;42.662;23.466;2022-11-11T12:39:39;5.20;;;5.10;;
10096;SDS011;5087;42.662;23.466;2022-11-11T12:42:39;5.50;;;5.40;;
10096;SDS011;5087;42.662;23.466;2022-11-11T12:45:41;5.60;;;5.50;;
10096;SDS011;5087;42.662;23.466;2022-11-11T12:48:36;5.60;;;5.50;;
10096;SDS011;5087;42.662;23.466;2022-11-11T12:51:41;5.60;;;5.50;;
10096;SDS011;5087;42.662;23.466;2022-11-11T12:54:41;5.40;;;5.30;;
10096;SDS011;5087;42.662;23.466;2022-11-11T12:57:44;5.00;;;4.90;;
10096;SDS011;5087;42.662;23.466;2022-11-11T13:00:47;5.10;;;5.00;;
10096;SDS011;5087;42.662;23.466;2022-11-11T13:03:48;5.53;;;5.43;;
10096;SDS011;5087;42.662;23.466;2022-11-11T13:06:43;5.50;;;5.20;;
10096;SDS011;5087;42.662;23.466;2022-11-11T13:09:48;5.10;;;5.00;;
10096;SDS011;5087;42.662;23.466;2022-11-11T13:12:43;5.30;;;5.20;;
10096;SDS011;5087;42.662;23.466;2022-11-11T13:15:36;5.10;;;5.00;;
10096;SDS011;5087;42.662;23.466;2022-11-11T13:18:23;5.40;;;5.30;;
10096;SDS011;5087;42.662;23.466;2022-11-11T13:21:13;5.17;;;5.07;;
10096;SDS011;5087;42.662;23.466;2022-11-11T13:24:14;5.40;;;5.30;;
10096;SDS011;5087;42.662;23.466;2022-11-11T13:27:13;5.60;;;5.50;;
10096;SDS011;5087;42.662;23.466;2022-11-11T13:30:06;5.20;;;5.10;;
10096;SDS011;5087;42.662;23.466;2022-11-11T13:33:12;5.67;;;5.57;;
10096;SDS011;5087;42.662;23.466;2022-11-11T13:36:01;5.40;;;5.30;;
10096;SDS011;5087;42.662;23.466;2022-11-11T13:38:49;5.50;;;5.40;;
10096;SDS011;5087;42.662;23.466;2022-11-11T13:41:38;5.50;;;5.40;;
10096;SDS011;5087;42.662;23.466;2022-11-11T13:44:30;5.50;;;5.40;;
10096;SDS011;5087;42.662;23.466;2022-11-11T13:47:19;5.47;;;5.37;;
10096;SDS011;5087;42.662;23.466;2022-11-11T13:50:11;5.80;;;5.70;;
10096;SDS011;5087;42.662;23.466;2022-11-11T13:53:06;5.80;;;5.70;;
10096;SDS011;5087;42.662;23.466;2022-11-11T13:56:03;4.93;;;4.83;;
10096;SDS011;5087;42.662;23.466;2022-11-11T13:58:50;5.20;;;5.10;;
10096;SDS011;5087;42.662;23.466;2022-11-11T14:01:41;5.10;;;5.00;;
10096;SDS011;5087;42.662;23.466;2022-11-11T14:04:28;4.90;;;4.80;;
10096;SDS011;5087;42.662;23.466;2022-11-11T14:13:43;4.70;;;4.60;;
10096;SDS011;5087;42.662;23.466;2022-11-11T14:19:57;5.60;;;5.50;;
10096;SDS011;5087;42.662;23.466;2022-11-11T14:22:43;5.00;;;4.90;;
10096;SDS011;5087;42.662;23.466;2022-11-11T14:25:29;5.37;;;5.17;;
10096;SDS011;5087;42.662;23.466;2022-11-11T14:28:21;5.10;;;5.00;;
10096;SDS011;5087;42.662;23.466;2022-11-11T14:34:44;4.80;;;4.70;;
10096;SDS011;5087;42.662;23.466;2022-11-11T14:37:47;4.50;;;4.40;;
10096;SDS011;5087;42.662;23.466;2022-11-11T14:40:54;4.77;;;4.67;;
10096;SDS011;5087;42.662;23.466;2022-11-11T14:43:40;4.70;;;4.60;;
10096;SDS011;5087;42.662;23.466;2022-11-11T14:46:27;5.10;;;5.00;;
10096;SDS011;5087;42.662;23.466;2022-11-11T14:49:27;5.10;;;5.00;;
10096;SDS011;5087;42.662;23.466;2022-11-11T14:52:32;4.60;;;4.50;;
10096;SDS011;5087;42.662;23.466;2022-11-11T14:55:23;4.50;;;4.40;;
10096;SDS011;5087;42.662;23.466;2022-11-11T14:58:12;4.57;;;4.47;;
10096;SDS011;5087;42.662;23.466;2022-11-11T15:01:02;4.60;;;4.50;;
10096;SDS011;5087;42.662;23.466;2022-11-11T15:03:59;4.40;;;4.30;;
10096;SDS011;5087;42.662;23.466;2022-11-11T15:06:47;3.73;;;3.73;;
10096;SDS011;5087;42.662;23.466;2022-11-11T15:09:43;4.40;;;4.30;;
10096;SDS011;5087;42.662;23.466;2022-11-11T15:16:11;4.60;;;4.50;;
10096;SDS011;5087;42.662;23.466;2022-11-11T15:19:22;4.50;;;4.40;;
10096;SDS011;5087;42.662;23.466;2022-11-11T15:22:31;4.27;;;4.17;;
10096;SDS011;5087;42.662;23.466;2022-11-11T15:25:30;4.53;;;4.43;;
10096;SDS011;5087;42.662;23.466;2022-11-11T15:28:30;4.70;;;4.60;;
10096;SDS011;5087;42.662;23.466;2022-11-11T15:31:27;4.97;;;4.87;;
10096;SDS011;5087;42.662;23.466;2022-11-11T15:34:23;5.00;;;4.90;;
10096;SDS011;5087;42.662;23.466;2022-11-11T15:37:17;4.33;;;4.23;;
10096;SDS011;5087;42.662;23.466;2022-11-11T15:40:06;5.03;;;4.93;;
10096;SDS011;5087;42.662;23.466;2022-11-11T15:43:03;5.10;;;5.00;;
10096;SDS011;5087;42.662;23.466;2022-11-11T15:45:51;4.70;;;4.60;;
10096;SDS011;5087;42.662;23.466;2022-11-11T15:48:38;4.73;;;4.63;;
10096;SDS011;5087;42.662;23.466;2022-11-11T15:51:27;4.73;;;4.53;;
10096;SDS011;5087;42.662;23.466;2022-11-11T15:54:15;4.13;;;4.03;;
10096;SDS011;5087;42.662;23.466;2022-11-11T15:57:15;5.10;;;5.00;;
10096;SDS011;5087;42.662;23.466;2022-11-11T16:00:23;4.90;;;4.80;;
10096;SDS011;5087;42.662;23.466;2022-11-11T16:03:14;4.90;;;4.80;;
10096;SDS011;5087;42.662;23.466;2022-11-11T16:06:03;4.10;;;4.00;;
10096;SDS011;5087;42.662;23.466;2022-11-11T16:08:52;3.83;;;3.80;;
10096;SDS011;5087;42.662;23.466;2022-11-11T16:11:40;3.70;;;3.70;;
10096;SDS011;5087;42.662;23.466;2022-11-11T16:14:28;4.33;;;4.23;;
10096;SDS011;5087;42.662;23.466;2022-11-11T16:17:16;4.50;;;4.40;;
10096;SDS011;5087;42.662;23.466;2022-11-11T16:20:10;4.10;;;4.00;;
10096;SDS011;5087;42.662;23.466;2022-11-11T16:22:59;4.40;;;4.30;;
10096;SDS011;5087;42.662;23.466;2022-11-11T16:25:49;4.27;;;4.17;;
10096;SDS011;5087;42.662;23.466;2022-11-11T16:28:37;3.50;;;3.50;;
10096;SDS011;5087;42.662;23.466;2022-11-11T16:31:29;3.80;;;3.80;;
10096;SDS011;5087;42.662;23.466;2022-11-11T16:34:32;3.60;;;3.60;;
10096;SDS011;5087;42.662;23.466;2022-11-11T16:37:22;3.80;;;3.73;;
10096;SDS011;5087;42.662;23.466;2022-11-11T16:40:25;4.10;;;4.00;;
10096;SDS011;5087;42.662;23.466;2022-11-11T16:43:17;3.50;;;3.50;;
10096;SDS011;5087;42.662;23.466;2022-11-11T16:46:06;3.40;;;3.40;;
10096;SDS011;5087;42.662;23.466;2022-11-11T16:48:54;4.07;;;3.97;;
10096;SDS011;5087;42.662;23.466;2022-11-11T16:51:40;3.00;;;3.00;;
10096;SDS011;5087;42.662;23.466;2022-11-11T16:54:30;2.87;;;2.87;;
10096;SDS011;5087;42.662;23.466;2022-11-11T16:57:20;3.03;;;3.03;;
10096;SDS011;5087;42.662;23.466;2022-11-11T17:00:11;3.13;;;3.13;;
10096;SDS011;5087;42.662;23.466;2022-11-11T17:03:07;3.23;;;3.23;;
10096;SDS011;5087;42.662;23.466;2022-11-11T17:05:56;3.50;;;3.50;;
10096;SDS011;5087;42.662;23.466;2022-11-11T17:08:43;4.10;;;4.00;;
10096;SDS011;5087;42.662;23.466;2022-11-11T17:11:45;3.80;;;3.80;;
10096;SDS011;5087;42.662;23.466;2022-11-11T17:14:32;3.60;;;3.60;;
10096;SDS011;5087;42.662;23.466;2022-11-11T17:17:22;3.80;;;3.80;;
10096;SDS011;5087;42.662;23.466;2022-11-11T17:20:09;4.20;;;4.10;;
10096;SDS011;5087;42.662;23.466;2022-11-11T17:22:59;3.70;;;3.70;;
10096;SDS011;5087;42.662;23.466;2022-11-11T17:25:52;4.00;;;3.90;;
10096;SDS011;5087;42.662;23.466;2022-11-11T17:28:41;4.50;;;4.40;;
10096;SDS011;5087;42.662;23.466;2022-11-11T17:31:27;4.30;;;4.20;;
10096;SDS011;5087;42.662;23.466;2022-11-11T17:34:14;4.83;;;4.73;;
10096;SDS011;5087;42.662;23.466;2022-11-11T17:37:00;4.40;;;4.30;;
10096;SDS011;5087;42.662;23.466;2022-11-11T17:39:45;4.30;;;4.20;;
10096;SDS011;5087;42.662;23.466;2022-11-11T17:42:31;4.87;;;4.67;;
10096;SDS011;5087;42.662;23.466;2022-11-11T17:45:18;4.10;;;4.00;;